FMEE

Roland Garros Airport

St Denis, Reunion
METAR FMEE 241100Z AUTO 09014KT 9999 BKN036/// OVC047/// 25/19 Q1020 NOSIG
Observed Flight Rules
Sep-24 @ 11:00 UTC (32 minutes ago) Visual Flight Rules
Wind Visibility Clouds
90° at 14 knots 10,000+ meters
  • Broken at 3,600' AGL
  • Overcast at 4,700' AGL
Temperatures Readings
Current 25°C / 77°F
Dewpoint 19°C / 66°F
Humidity 69%
Altimeter 30.12" Hg
Pressure 1020 hPa
Elevation 25
METAR FMEE 241100Z AUTO 09014KT 9999 BKN036/// OVC047/// 25/19 Q1020 NOSIG
Observed Flight Rules
Sep-24 @ 11:00 UTC
(32 minutes ago)
VFR
Wind Visibility
90° at 14 knots 10,000+ meters
Clouds
  • Broken at 3,600' AGL
  • Overcast at 4,700' AGL
Temperature Dewpoint
25°C / 77°F 19°C / 66°F
Humidity Altimeter Pressure
69% 30.12" Hg 1020 hPa